createdAt,value
2022-08-31T00:00:10.030Z,13.70
2022-08-31T00:02:55.906Z,13.70
2022-08-31T00:05:23.072Z,13.70
2022-08-31T00:07:49.956Z,13.60
2022-08-31T00:10:18.903Z,13.50
2022-08-31T00:12:48.709Z,13.50
2022-08-31T00:15:19.912Z,13.50
2022-08-31T00:17:49.849Z,13.50
2022-08-31T00:20:32.730Z,13.40
2022-08-31T00:23:02.760Z,13.40
2022-08-31T00:25:29.462Z,13.40
2022-08-31T00:27:56.127Z,13.40
2022-08-31T00:30:23.424Z,13.30
2022-08-31T00:32:50.213Z,13.30
2022-08-31T00:35:16.906Z,13.20
2022-08-31T00:37:43.488Z,13.20
2022-08-31T00:40:10.589Z,13.10
2022-08-31T00:42:37.359Z,13.10
2022-08-31T00:45:05.568Z,13.00
2022-08-31T00:47:32.244Z,13.10
2022-08-31T00:50:00.027Z,13.00
2022-08-31T00:52:37.387Z,12.90
2022-08-31T00:55:16.155Z,12.90
2022-08-31T00:57:46.545Z,12.90
2022-08-31T01:00:20.307Z,12.90
2022-08-31T01:02:47.337Z,12.80
2022-08-31T01:05:15.224Z,12.80
2022-08-31T01:07:44.987Z,12.70
2022-08-31T01:10:11.633Z,12.70
2022-08-31T01:12:38.372Z,12.80
2022-08-31T01:15:07.220Z,12.70
2022-08-31T01:17:35.632Z,12.70
2022-08-31T01:20:27.378Z,12.70
2022-08-31T01:23:15.616Z,12.60
2022-08-31T01:25:44.286Z,12.60
2022-08-31T01:28:11.585Z,12.60
2022-08-31T01:30:39.029Z,12.50
2022-08-31T01:33:06.276Z,12.50
2022-08-31T01:35:33.739Z,12.40
2022-08-31T01:38:01.324Z,12.50
2022-08-31T01:40:46.410Z,12.40
2022-08-31T01:43:13.337Z,12.40
2022-08-31T01:45:40.157Z,12.30
2022-08-31T01:48:06.769Z,12.30
2022-08-31T01:50:33.392Z,12.30
2022-08-31T01:52:59.973Z,12.20
2022-08-31T01:55:26.701Z,12.20
2022-08-31T01:57:53.400Z,12.10
2022-08-31T02:00:20.273Z,12.20
2022-08-31T02:02:46.981Z,12.10
2022-08-31T02:05:14.420Z,12.10
2022-08-31T02:07:41.444Z,12.10
2022-08-31T02:10:08.723Z,12.00
2022-08-31T02:12:35.340Z,11.90
2022-08-31T02:15:02.029Z,11.90
2022-08-31T02:17:28.613Z,11.90
2022-08-31T02:19:55.222Z,11.90
2022-08-31T02:22:21.985Z,11.90
2022-08-31T02:24:48.633Z,11.90
2022-08-31T02:27:15.376Z,11.80
2022-08-31T02:29:41.972Z,11.80
2022-08-31T02:32:08.614Z,11.80
2022-08-31T02:34:46.156Z,11.80
2022-08-31T02:37:12.954Z,11.70
2022-08-31T02:39:39.785Z,11.70
2022-08-31T02:42:06.542Z,11.70
2022-08-31T02:44:34.929Z,11.60
2022-08-31T02:47:01.561Z,11.70
2022-08-31T02:49:28.162Z,11.60
2022-08-31T02:51:54.750Z,11.60
2022-08-31T02:54:21.392Z,11.60
2022-08-31T02:56:48.028Z,11.60
2022-08-31T02:59:14.624Z,11.60
2022-08-31T03:01:41.967Z,11.50
2022-08-31T03:04:08.632Z,11.50
2022-08-31T03:06:35.312Z,11.50
2022-08-31T03:09:02.496Z,11.50
2022-08-31T03:11:29.175Z,11.50
2022-08-31T03:13:58.685Z,11.40
2022-08-31T03:16:26.420Z,11.40
2022-08-31T03:18:53.195Z,11.30
2022-08-31T03:21:19.807Z,11.30
2022-08-31T03:23:46.384Z,11.30
2022-08-31T03:26:13.034Z,11.30
2022-08-31T03:28:39.736Z,11.30
2022-08-31T03:31:08.542Z,11.30
2022-08-31T03:33:35.752Z,11.30
2022-08-31T03:36:03.769Z,11.30
2022-08-31T03:38:30.741Z,11.20
2022-08-31T03:40:57.384Z,11.20
2022-08-31T03:43:24.186Z,11.20
2022-08-31T03:45:51.139Z,11.20
2022-08-31T03:48:18.316Z,11.10
2022-08-31T03:50:44.960Z,11.10
2022-08-31T03:53:12.513Z,11.10
2022-08-31T03:55:42.571Z,11.10
2022-08-31T03:58:10.212Z,11.00
2022-08-31T04:00:37.430Z,11.00
2022-08-31T04:03:04.444Z,11.00
2022-08-31T04:05:33.956Z,10.90
2022-08-31T04:08:00.773Z,10.90
2022-08-31T04:10:27.409Z,10.90
2022-08-31T04:12:54.097Z,11.00
2022-08-31T04:15:22.318Z,11.00
2022-08-31T04:17:48.959Z,10.90
2022-08-31T04:20:18.812Z,10.90
2022-08-31T04:22:53.576Z,10.90
2022-08-31T04:25:21.582Z,10.90
2022-08-31T04:27:50.249Z,10.90
2022-08-31T04:30:17.762Z,10.90
2022-08-31T04:32:44.402Z,10.90
2022-08-31T04:35:11.000Z,10.90
2022-08-31T04:37:39.284Z,10.90
2022-08-31T04:40:18.065Z,10.90
2022-08-31T04:42:49.215Z,10.90
2022-08-31T04:45:16.359Z,10.80
2022-08-31T04:47:43.572Z,10.90
2022-08-31T04:50:12.586Z,10.90
2022-08-31T04:52:39.178Z,11.00
2022-08-31T04:55:07.303Z,10.90
2022-08-31T04:57:35.393Z,11.00
2022-08-31T05:00:04.082Z,11.00
2022-08-31T05:02:33.131Z,11.00
2022-08-31T05:05:00.833Z,11.10
2022-08-31T05:07:27.554Z,11.10
2022-08-31T05:09:54.392Z,11.10
2022-08-31T05:12:21.157Z,11.20
2022-08-31T05:14:47.801Z,11.20
2022-08-31T05:17:15.946Z,11.20
2022-08-31T05:19:43.629Z,11.30
2022-08-31T05:22:10.967Z,11.30
2022-08-31T05:24:39.014Z,11.40
2022-08-31T05:27:06.374Z,11.40
2022-08-31T05:29:33.043Z,11.40
2022-08-31T05:31:59.729Z,11.50
2022-08-31T05:34:26.862Z,11.60
2022-08-31T05:36:56.253Z,11.60
2022-08-31T05:39:23.861Z,11.70
2022-08-31T05:41:50.636Z,11.80
2022-08-31T05:44:18.018Z,11.90
2022-08-31T05:46:44.751Z,12.00
2022-08-31T05:49:19.322Z,12.10
2022-08-31T05:51:45.961Z,12.40
2022-08-31T05:54:14.601Z,12.70
2022-08-31T05:56:41.893Z,13.20
2022-08-31T05:59:09.906Z,13.40
2022-08-31T06:01:39.986Z,13.50
2022-08-31T06:04:07.782Z,13.80
2022-08-31T06:06:34.941Z,14.70
2022-08-31T06:09:01.727Z,16.10
2022-08-31T06:11:30.760Z,17.40
2022-08-31T06:13:59.683Z,18.90
2022-08-31T06:16:27.386Z,20.10
2022-08-31T06:18:55.481Z,21.40
2022-08-31T06:21:28.200Z,22.60
2022-08-31T06:23:59.507Z,23.70
2022-08-31T06:26:28.578Z,24.90
2022-08-31T06:28:57.660Z,25.80
2022-08-31T06:31:46.883Z,26.50
2022-08-31T06:34:16.133Z,27.20
2022-08-31T06:36:42.867Z,28.10
2022-08-31T06:39:09.803Z,29.00
2022-08-31T06:41:38.965Z,30.00
2022-08-31T06:44:08.026Z,30.90
2022-08-31T06:46:36.160Z,31.50
2022-08-31T06:49:03.373Z,31.00
2022-08-31T06:51:36.307Z,30.80
2022-08-31T06:54:27.448Z,31.10
2022-08-31T06:56:51.314Z,31.40
2022-08-31T06:59:17.946Z,32.10
2022-08-31T07:01:44.687Z,33.00
2022-08-31T07:04:12.225Z,33.70
2022-08-31T07:06:41.550Z,34.00
2022-08-31T07:09:11.634Z,34.00
2022-08-31T07:11:51.989Z,33.90
2022-08-31T07:14:24.837Z,33.60
2022-08-31T07:16:54.408Z,33.40
2022-08-31T07:19:21.975Z,33.50
2022-08-31T07:21:54.565Z,33.60
2022-08-31T07:24:25.096Z,33.70
2022-08-31T07:26:54.877Z,33.30
2022-08-31T07:29:23.006Z,33.20
2022-08-31T07:31:50.392Z,33.50
2022-08-31T07:34:25.584Z,33.90
2022-08-31T07:37:12.393Z,34.50
2022-08-31T07:40:07.922Z,34.90
2022-08-31T07:42:43.248Z,35.10
2022-08-31T07:45:21.561Z,35.30
2022-08-31T07:47:51.229Z,35.30
2022-08-31T07:50:19.329Z,35.60
2022-08-31T07:52:52.979Z,36.00
2022-08-31T07:55:21.766Z,36.20
2022-08-31T07:57:48.980Z,36.20
2022-08-31T08:00:21.686Z,36.40
2022-08-31T08:02:50.911Z,36.90
2022-08-31T08:05:28.645Z,37.00
2022-08-31T08:08:08.403Z,36.80
2022-08-31T08:10:43.481Z,37.00
2022-08-31T08:13:12.473Z,37.50
2022-08-31T08:15:40.414Z,38.10
2022-08-31T08:18:12.143Z,38.50
2022-08-31T08:20:40.081Z,38.70
2022-08-31T08:23:13.832Z,38.80
2022-08-31T08:25:45.190Z,39.30
2022-08-31T08:28:38.575Z,39.20
2022-08-31T08:31:10.795Z,38.40
2022-08-31T08:33:37.404Z,38.10
2022-08-31T08:36:08.199Z,38.00
2022-08-31T08:38:39.097Z,38.30
2022-08-31T08:41:12.363Z,38.50
2022-08-31T08:43:43.790Z,39.00
2022-08-31T08:46:33.534Z,39.00
2022-08-31T08:49:10.807Z,38.60
2022-08-31T08:51:39.429Z,37.80
2022-08-31T08:54:14.025Z,37.80
2022-08-31T08:56:47.587Z,37.00
2022-08-31T08:59:19.980Z,36.50
2022-08-31T09:01:50.790Z,36.70
2022-08-31T09:04:50.009Z,37.30
2022-08-31T09:07:45.270Z,36.70
2022-08-31T09:10:20.370Z,36.00
2022-08-31T09:13:13.177Z,35.30
2022-08-31T09:16:12.213Z,34.40
2022-08-31T09:19:10.786Z,34.70
2022-08-31T09:21:44.209Z,36.00
2022-08-31T09:24:14.653Z,35.40
2022-08-31T09:26:46.984Z,34.10
2022-08-31T09:29:26.977Z,33.20
2022-08-31T09:32:09.717Z,33.70
2022-08-31T09:34:41.012Z,34.70
2022-08-31T09:37:33.069Z,35.40
2022-08-31T09:40:36.783Z,35.80
2022-08-31T09:43:08.353Z,35.20
2022-08-31T09:45:42.558Z,34.60
2022-08-31T09:48:09.713Z,34.10
2022-08-31T09:50:41.517Z,33.70
2022-08-31T09:53:37.978Z,33.30
2022-08-31T09:56:16.697Z,33.50
2022-08-31T09:58:45.367Z,33.50
2022-08-31T10:01:25.921Z,33.60
2022-08-31T10:04:18.724Z,33.30
2022-08-31T10:06:55.246Z,32.60
2022-08-31T10:09:37.553Z,31.60
2022-08-31T10:12:09.000Z,31.10
2022-08-31T10:14:43.582Z,30.80
2022-08-31T10:17:33.188Z,30.70
2022-08-31T10:20:06.656Z,30.60
2022-08-31T10:22:43.788Z,30.40
2022-08-31T10:25:22.222Z,29.90
2022-08-31T10:28:14.313Z,29.40
2022-08-31T10:30:44.846Z,29.30
2022-08-31T10:33:25.837Z,29.40
2022-08-31T10:35:57.441Z,29.70
2022-08-31T10:38:41.193Z,29.90
2022-08-31T10:41:16.864Z,29.70
2022-08-31T10:44:05.481Z,29.20
2022-08-31T10:46:34.398Z,28.90
2022-08-31T10:49:04.220Z,28.80
2022-08-31T10:52:03.142Z,28.90
2022-08-31T10:54:51.490Z,29.20
2022-08-31T10:57:36.397Z,29.10
2022-08-31T11:00:37.537Z,29.20
2022-08-31T11:03:22.416Z,29.50
2022-08-31T11:06:26.491Z,30.00
2022-08-31T11:09:38.589Z,30.40
2022-08-31T11:12:10.998Z,30.60
2022-08-31T11:15:30.630Z,30.80
2022-08-31T11:18:19.169Z,30.70
2022-08-31T11:21:09.142Z,30.10
2022-08-31T11:23:48.133Z,29.80
2022-08-31T11:26:32.739Z,29.30
2022-08-31T11:29:10.132Z,28.90
2022-08-31T11:31:38.762Z,28.90
2022-08-31T11:34:26.551Z,28.90
2022-08-31T11:36:56.207Z,28.90
2022-08-31T11:39:35.802Z,28.90
2022-08-31T11:42:19.003Z,28.70
2022-08-31T11:44:59.728Z,28.40
2022-08-31T11:47:29.827Z,28.50
2022-08-31T11:50:09.583Z,28.60
2022-08-31T11:52:42.982Z,28.40
2022-08-31T11:55:27.214Z,28.10
2022-08-31T11:58:06.214Z,28.00
2022-08-31T12:00:52.420Z,28.10
2022-08-31T12:03:38.802Z,28.90
2022-08-31T12:06:11.153Z,29.90
2022-08-31T12:08:54.550Z,30.30
2022-08-31T12:11:32.248Z,30.10
2022-08-31T12:14:20.300Z,30.00
2022-08-31T12:17:01.704Z,30.10
2022-08-31T12:20:01.306Z,29.80
2022-08-31T12:23:06.076Z,30.00
2022-08-31T12:25:47.457Z,30.10
2022-08-31T12:28:37.404Z,30.70
2022-08-31T12:31:10.600Z,31.10
2022-08-31T12:33:45.163Z,31.00
2022-08-31T12:36:25.199Z,30.70
2022-08-31T12:39:13.632Z,30.20
2022-08-31T12:41:46.934Z,29.20
2022-08-31T12:44:23.870Z,28.80
2022-08-31T12:47:16.222Z,28.30
2022-08-31T12:49:51.697Z,27.90
2022-08-31T12:52:21.061Z,27.60
2022-08-31T12:54:58.468Z,27.20
2022-08-31T12:57:50.380Z,27.20
2022-08-31T13:00:35.450Z,27.50
2022-08-31T13:03:18.333Z,27.50
2022-08-31T13:06:09.651Z,27.50
2022-08-31T13:08:41.102Z,27.60
2022-08-31T13:11:25.656Z,27.40
2022-08-31T13:14:14.881Z,27.40
2022-08-31T13:16:47.712Z,27.10
2022-08-31T13:19:26.918Z,26.80
2022-08-31T13:22:06.879Z,26.60
2022-08-31T13:24:37.802Z,26.70
2022-08-31T13:27:04.340Z,26.80
2022-08-31T13:29:31.162Z,26.80
2022-08-31T13:31:57.916Z,26.80
2022-08-31T13:34:24.824Z,27.10
2022-08-31T13:36:59.618Z,27.30
2022-08-31T13:39:38.889Z,27.40
2022-08-31T13:42:31.834Z,27.40
2022-08-31T13:45:03.518Z,27.30
2022-08-31T13:47:45.211Z,27.00
2022-08-31T13:50:25.592Z,26.70
2022-08-31T13:53:23.039Z,26.50
2022-08-31T13:55:44.538Z,26.30
2022-08-31T13:58:28.304Z,26.20
2022-08-31T14:01:24.393Z,26.30
2022-08-31T14:03:59.172Z,26.30
2022-08-31T14:06:32.078Z,26.30
2022-08-31T14:09:16.408Z,26.20
2022-08-31T14:11:53.276Z,25.90
2022-08-31T14:14:29.848Z,25.50
2022-08-31T14:16:58.162Z,25.50
2022-08-31T14:19:39.882Z,25.60
2022-08-31T14:22:30.332Z,25.60
2022-08-31T14:24:57.244Z,25.80
2022-08-31T14:27:24.183Z,26.00
2022-08-31T14:29:52.136Z,26.10
2022-08-31T14:32:22.076Z,26.10
2022-08-31T14:34:49.102Z,26.10
2022-08-31T14:37:22.157Z,26.00
2022-08-31T14:40:07.369Z,25.90
2022-08-31T14:42:37.606Z,25.80
2022-08-31T14:45:18.527Z,25.60
2022-08-31T14:47:47.830Z,25.50
2022-08-31T14:50:18.628Z,25.40
2022-08-31T14:52:57.434Z,25.40
2022-08-31T14:55:26.906Z,25.30
2022-08-31T14:58:01.455Z,25.10
2022-08-31T15:00:31.588Z,25.00
2022-08-31T15:03:01.205Z,24.80
2022-08-31T15:05:27.833Z,24.80
2022-08-31T15:07:55.188Z,24.70
2022-08-31T15:10:25.201Z,24.50
2022-08-31T15:12:52.456Z,24.50
2022-08-31T15:15:20.352Z,24.30
2022-08-31T15:17:50.417Z,24.20
2022-08-31T15:20:21.378Z,24.10
2022-08-31T15:22:48.570Z,24.00
2022-08-31T15:25:16.925Z,23.80
2022-08-31T15:27:44.136Z,23.80
2022-08-31T15:30:12.755Z,23.70
2022-08-31T15:32:44.954Z,23.50
2022-08-31T15:35:17.716Z,23.40
2022-08-31T15:37:56.185Z,23.30
2022-08-31T15:40:23.797Z,23.10
2022-08-31T15:42:50.817Z,23.20
2022-08-31T15:45:17.763Z,23.10
2022-08-31T15:48:03.548Z,23.00
2022-08-31T15:50:31.624Z,23.00
2022-08-31T15:53:08.028Z,23.00
2022-08-31T15:55:37.991Z,22.90
2022-08-31T15:58:04.605Z,22.80
2022-08-31T16:00:32.462Z,22.70
2022-08-31T16:03:01.358Z,22.70
2022-08-31T16:05:38.720Z,22.70
2022-08-31T16:08:10.953Z,22.70
2022-08-31T16:10:42.711Z,22.60
2022-08-31T16:13:09.524Z,22.60
2022-08-31T16:15:37.609Z,22.60
2022-08-31T16:18:05.716Z,22.60
2022-08-31T16:20:34.332Z,22.60
2022-08-31T16:23:01.014Z,22.60
2022-08-31T16:25:30.952Z,22.60
2022-08-31T16:28:14.988Z,22.60
2022-08-31T16:30:43.678Z,22.50
2022-08-31T16:33:12.225Z,22.60
2022-08-31T16:35:39.681Z,22.60
2022-08-31T16:38:07.114Z,22.60
2022-08-31T16:40:34.455Z,22.60
2022-08-31T16:43:01.529Z,22.50
2022-08-31T16:45:28.659Z,22.50
2022-08-31T16:48:15.268Z,22.40
2022-08-31T16:50:47.465Z,22.30
2022-08-31T16:53:17.860Z,22.20
2022-08-31T16:55:47.248Z,22.20
2022-08-31T16:58:24.861Z,22.10
2022-08-31T17:01:13.122Z,21.90
2022-08-31T17:03:43.833Z,21.80
2022-08-31T17:06:10.950Z,21.70
2022-08-31T17:08:41.192Z,21.60
2022-08-31T17:11:26.548Z,21.50
2022-08-31T17:13:58.534Z,21.30
2022-08-31T17:16:31.309Z,21.20
2022-08-31T17:18:58.885Z,21.10
2022-08-31T17:21:29.060Z,20.90
2022-08-31T17:23:59.013Z,20.90
2022-08-31T17:26:30.978Z,20.70
2022-08-31T17:29:01.785Z,20.60
2022-08-31T17:31:31.450Z,20.50
2022-08-31T17:34:02.127Z,20.40
2022-08-31T17:36:37.323Z,20.40
2022-08-31T17:39:04.535Z,20.30
2022-08-31T17:41:31.138Z,20.20
2022-08-31T17:43:58.762Z,20.20
2022-08-31T17:46:26.329Z,20.10
2022-08-31T17:48:55.635Z,20.00
2022-08-31T17:51:28.344Z,19.90
2022-08-31T17:54:02.270Z,19.70
2022-08-31T17:56:47.627Z,19.70
2022-08-31T17:59:18.782Z,19.70
2022-08-31T18:01:48.221Z,19.60
2022-08-31T18:04:15.305Z,19.50
2022-08-31T18:06:44.743Z,19.40
2022-08-31T18:09:17.278Z,19.30
2022-08-31T18:11:47.714Z,19.20
2022-08-31T18:14:16.225Z,19.10
2022-08-31T18:16:45.114Z,19.00
2022-08-31T18:19:12.521Z,18.90
2022-08-31T18:21:39.661Z,18.80
2022-08-31T18:24:06.940Z,18.70
2022-08-31T18:26:42.760Z,18.60
2022-08-31T18:29:16.647Z,18.60
2022-08-31T18:31:46.857Z,18.50
2022-08-31T18:34:18.191Z,18.40
2022-08-31T18:36:45.494Z,18.30
2022-08-31T18:39:22.753Z,18.20
2022-08-31T18:42:20.370Z,18.10
2022-08-31T18:45:05.672Z,18.00
2022-08-31T18:47:32.907Z,17.90
2022-08-31T18:49:59.529Z,17.80
2022-08-31T18:52:28.017Z,17.70
2022-08-31T18:54:57.593Z,17.70
2022-08-31T18:57:26.560Z,17.50
2022-08-31T18:59:54.246Z,17.50
2022-08-31T19:02:22.838Z,17.40
2022-08-31T19:04:51.088Z,17.30
2022-08-31T19:07:19.507Z,17.30
2022-08-31T19:09:47.945Z,17.20
2022-08-31T19:12:19.281Z,17.20
2022-08-31T19:14:51.774Z,17.10
2022-08-31T19:17:19.233Z,17.10
2022-08-31T19:19:48.513Z,17.00
2022-08-31T19:22:17.961Z,16.90
2022-08-31T19:24:44.792Z,16.80
2022-08-31T19:27:13.790Z,16.80
2022-08-31T19:29:41.237Z,16.70
2022-08-31T19:32:08.752Z,16.60
2022-08-31T19:34:37.886Z,16.60
2022-08-31T19:37:07.177Z,16.50
2022-08-31T19:39:37.271Z,16.40
2022-08-31T19:42:07.538Z,16.40
2022-08-31T19:47:25.263Z,16.20
2022-08-31T19:49:52.874Z,16.20
2022-08-31T19:52:20.162Z,16.10
2022-08-31T19:54:48.398Z,16.00
2022-08-31T19:57:16.202Z,16.00
2022-08-31T19:59:42.853Z,15.90
2022-08-31T20:02:09.656Z,15.90
2022-08-31T20:04:36.501Z,15.80
2022-08-31T20:07:06.169Z,15.80
2022-08-31T20:09:33.897Z,15.80
2022-08-31T20:12:01.934Z,15.70
2022-08-31T20:14:29.141Z,15.70
2022-08-31T20:16:56.465Z,15.70
2022-08-31T20:19:27.327Z,15.70
2022-08-31T20:22:07.659Z,15.80
2022-08-31T20:24:43.550Z,15.80
2022-08-31T20:27:16.119Z,15.90
2022-08-31T20:29:43.692Z,15.90
2022-08-31T20:32:10.265Z,16.00
2022-08-31T20:34:38.404Z,16.10
2022-08-31T20:37:05.193Z,16.10
2022-08-31T20:39:32.938Z,16.10
2022-08-31T20:42:02.945Z,16.10
2022-08-31T20:44:33.534Z,16.20
2022-08-31T20:47:30.566Z,16.20
2022-08-31T20:50:01.877Z,16.20
2022-08-31T20:52:31.842Z,16.10
2022-08-31T20:55:01.895Z,16.10
2022-08-31T20:57:30.476Z,16.10
2022-08-31T20:59:57.154Z,16.00
2022-08-31T21:02:23.828Z,16.00
2022-08-31T21:04:50.500Z,16.00
2022-08-31T21:07:19.148Z,15.90
2022-08-31T21:09:46.601Z,15.90
2022-08-31T21:12:18.162Z,15.80
2022-08-31T21:14:46.086Z,15.80
2022-08-31T21:17:14.362Z,15.80
2022-08-31T21:19:41.829Z,15.70
2022-08-31T21:22:10.983Z,15.60
2022-08-31T21:24:39.996Z,15.60
2022-08-31T21:27:09.037Z,15.50
2022-08-31T21:29:36.970Z,15.50
2022-08-31T21:32:05.915Z,15.40
2022-08-31T21:34:32.740Z,15.40
2022-08-31T21:36:59.641Z,15.40
2022-08-31T21:39:26.961Z,15.30
2022-08-31T21:41:55.411Z,15.30
2022-08-31T21:44:22.916Z,15.20
2022-08-31T21:46:50.835Z,15.20
2022-08-31T21:49:18.577Z,15.20
2022-08-31T21:51:54.302Z,15.10
2022-08-31T21:54:27.164Z,15.10
2022-08-31T21:56:59.392Z,15.00
2022-08-31T21:59:29.288Z,15.00
2022-08-31T22:02:04.027Z,14.90
2022-08-31T22:04:33.569Z,14.90
2022-08-31T22:07:01.082Z,14.80
2022-08-31T22:09:29.081Z,14.70
2022-08-31T22:11:58.072Z,14.70
2022-08-31T22:14:29.230Z,14.70
2022-08-31T22:16:57.990Z,14.70
2022-08-31T22:19:27.014Z,14.60
2022-08-31T22:22:01.176Z,14.60
2022-08-31T22:24:31.591Z,14.60
2022-08-31T22:27:03.093Z,14.50
2022-08-31T22:29:32.876Z,14.50
2022-08-31T22:32:03.076Z,14.50
2022-08-31T22:34:29.809Z,14.50
2022-08-31T22:36:57.078Z,14.40
2022-08-31T22:39:27.914Z,14.40
2022-08-31T22:41:56.606Z,14.40
2022-08-31T22:44:26.614Z,14.30
2022-08-31T22:46:56.141Z,14.20
2022-08-31T22:49:23.522Z,14.20
2022-08-31T22:51:50.102Z,14.20
2022-08-31T22:54:18.891Z,14.20
2022-08-31T22:56:45.823Z,14.20
2022-08-31T22:59:15.887Z,14.10
2022-08-31T23:01:47.427Z,14.10
2022-08-31T23:04:19.849Z,14.00
2022-08-31T23:06:48.982Z,14.00
2022-08-31T23:09:19.374Z,14.00
2022-08-31T23:11:46.473Z,14.00
2022-08-31T23:14:13.250Z,14.00
2022-08-31T23:16:44.704Z,14.00
2022-08-31T23:19:21.609Z,14.00
2022-08-31T23:21:56.668Z,13.90
2022-08-31T23:24:29.388Z,14.00
2022-08-31T23:27:02.998Z,14.00
2022-08-31T23:29:36.569Z,14.00
2022-08-31T23:32:04.304Z,13.90
2022-08-31T23:34:30.921Z,13.90
2022-08-31T23:36:57.580Z,13.80
2022-08-31T23:39:24.805Z,13.80
2022-08-31T23:41:52.247Z,13.70
2022-08-31T23:44:20.369Z,13.80
2022-08-31T23:46:47.455Z,13.70
2022-08-31T23:49:17.729Z,13.70
2022-08-31T23:51:44.385Z,13.70
2022-08-31T23:54:13.887Z,13.60
2022-08-31T23:56:43.049Z,13.60
2022-08-31T23:59:16.942Z,13.60
